Terminal Aerodrome Forecast
Issued by NWS

Home | Current Version | Previous Version | Text Only | Print | Product List | Glossary On
Versions: 1 2 3 4 5 6 7 8 9 10 11 12 13 14 15 16 17 18 19 20 21 22 23 24
000
FTUS45 KGJT 222053 AAA
TAFVEL
TAF AMD
KVEL 222053Z 2221/2318 20010G20KT P6SM SCT080 BKN200
     FM222200 22010G20KT P6SM VCSH BKN100
     FM230200 26007KT P6SM VCSH OVC060
     FM230600 28004KT P6SM -SHRA OVC050
     FM230800 09004KT 6SM -SHRA BR OVC030
     FM231200 19004KT 5SM -SHRA BR BKN030 OVC050=

USA.gov is the U.S. government's official web portal to all federal, state and local government web resources and services.